Brighton, Massachusetts
Current Conditions -  °F | °C
As of 8:54 AM on Sunday 23 Nov 2014 (Local Time) from KBOS Reporting Station
Broken Clouds Broken Clouds  
Wind Chill: 42°   Ceiling: 12000
Heat Index: 47°   Visibility: 10mi
Dew Point: 27°   Wind: 12mph
Humidity: 46%   Direction: 230°SW
Pressure: 30.13"   Gusts: NA
Location:  42.35°N, 71.15°W
Report Text: KBOS 231354Z COR 23010KT 10SM BKN120 08/M03 A3013 RMK AO2 SLP203 T00831028
Loading
Personal Weather Stations






























Interactive Weather Map New forecast layout! Learn more

10-Day Weather Forecast

Advertisements
Track Severe Weather on mobile